Time;durP1;ratioP1;P1;durP2;ratioP2;P2;SDS_P1;SDS_P2;PMS_P1;PMS_P2;Temp;Humidity;BMP_temperature;BMP_pressure;BME280_temperature;BME280_humidity;BME280_pressure;Samples;Min_cycle;Max_cycle;Signal;HPM_P1;HPM_P2
2023/08/02 00:00:36;;;;;;;13.32;3.53;;;;;;;;;;4921649;28;99926;-74
2023/08/02 00:03:02;;;;;;;13.75;3.38;;;;;;;;;;4921890;28;100163;-74
2023/08/02 00:05:29;;;;;;;13.50;3.08;;;;;;;;;;4919795;28;98907;-74
2023/08/02 00:07:58;;;;;;;15.27;3.60;;;;;;;;;;4924049;28;99753;-74
2023/08/02 00:10:26;;;;;;;15.07;3.50;;;;;;;;;;4921423;28;102595;-76
2023/08/02 00:12:52;;;;;;;13.98;3.33;;;;;;;;;;4926680;28;99931;-73
2023/08/02 00:15:19;;;;;;;9.20;2.95;;;;;;;;;;4925200;28;100661;-75
2023/08/02 00:17:46;;;;;;;7.43;2.85;;;;;;;;;;4920812;28;99518;-73
2023/08/02 00:20:12;;;;;;;10.07;3.53;;;;;;;;;;4921797;28;100263;-76
2023/08/02 00:22:40;;;;;;;10.55;3.00;;;;;;;;;;4930098;28;100151;-73
2023/08/02 00:25:06;;;;;;;9.80;3.03;;;;;;;;;;4929135;28;99206;-75
2023/08/02 00:27:33;;;;;;;14.50;3.63;;;;;;;;;;4916861;28;100300;-73
2023/08/02 00:29:59;;;;;;;11.73;2.88;;;;;;;;;;4924927;28;98274;-75
2023/08/02 00:32:26;;;;;;;14.27;3.60;;;;;;;;;;4914541;28;101035;-75
2023/08/02 00:34:54;;;;;;;15.73;3.90;;;;;;;;;;4917968;28;100441;-75
2023/08/02 00:37:22;;;;;;;17.95;3.58;;;;;;;;;;4923977;28;100578;-74
2023/08/02 00:39:50;;;;;;;12.77;4.32;;;;;;;;;;4924239;28;99939;-74
2023/08/02 00:42:16;;;;;;;11.93;4.05;;;;;;;;;;4922158;28;99392;-74
2023/08/02 00:44:43;;;;;;;21.30;5.10;;;;;;;;;;4923269;28;99042;-75
2023/08/02 00:47:10;;;;;;;10.27;3.42;;;;;;;;;;4920853;28;99550;-74
2023/08/02 00:49:37;;;;;;;9.85;3.30;;;;;;;;;;4926236;28;101129;-73
2023/08/02 00:52:04;;;;;;;5.78;3.53;;;;;;;;;;4928562;28;101378;-73
2023/08/02 00:54:30;;;;;;;14.27;3.60;;;;;;;;;;4927761;28;99028;-75
2023/08/02 00:56:57;;;;;;;13.32;3.60;;;;;;;;;;4929968;28;99233;-74
2023/08/02 00:59:24;;;;;;;19.42;3.80;;;;;;;;;;4932916;28;99176;-76
2023/08/02 01:01:50;;;;;;;9.70;3.50;;;;;;;;;;4927756;28;99722;-73
2023/08/02 01:04:17;;;;;;;8.68;3.40;;;;;;;;;;4929350;28;98929;-74
2023/08/02 01:07:01;;;;;;;9.85;3.22;;;;;;;;;;4929908;28;98816;-73
2023/08/02 01:09:43;;;;;;;5.57;3.40;;;;;;;;;;4909316;28;100163;-75
2023/08/02 01:12:10;;;;;;;16.83;3.95;;;;;;;;;;4910318;28;99894;-75
2023/08/02 01:14:46;;;;;;;8.27;3.88;;;;;;;;;;4910279;28;99020;-73
2023/08/02 01:17:24;;;;;;;11.38;4.50;;;;;;;;;;4909322;28;99661;-73
2023/08/02 01:19:51;;;;;;;10.25;3.53;;;;;;;;;;4923265;28;99322;-74
2023/08/02 01:22:18;;;;;;;7.43;3.83;;;;;;;;;;4930204;28;98507;-73
2023/08/02 01:24:45;;;;;;;19.48;4.35;;;;;;;;;;4929562;28;100103;-73
2023/08/02 01:27:17;;;;;;;11.15;3.88;;;;;;;;;;4921702;28;99736;-74
2023/08/02 01:29:46;;;;;;;9.75;3.88;;;;;;;;;;4913733;28;102020;-74
2023/08/02 01:32:13;;;;;;;9.32;3.28;;;;;;;;;;4922314;28;99201;-74
2023/08/02 01:34:40;;;;;;;13.80;3.58;;;;;;;;;;4918438;28;100746;-73
2023/08/02 01:37:06;;;;;;;9.65;4.18;;;;;;;;;;4923170;28;100283;-73
2023/08/02 01:39:33;;;;;;;8.40;3.67;;;;;;;;;;4918958;28;98966;-74
2023/08/02 01:42:00;;;;;;;19.05;5.07;;;;;;;;;;4923344;28;99758;-74
2023/08/02 01:44:27;;;;;;;9.95;4.18;;;;;;;;;;4919180;28;101249;-74
2023/08/02 01:46:55;;;;;;;8.90;4.35;;;;;;;;;;4912954;28;99537;-74
2023/08/02 01:49:23;;;;;;;9.35;5.03;;;;;;;;;;4919589;28;102083;-74
2023/08/02 01:51:49;;;;;;;15.38;4.20;;;;;;;;;;4924710;28;100085;-74
2023/08/02 01:54:16;;;;;;;9.05;3.50;;;;;;;;;;4928628;28;99486;-74
2023/08/02 01:56:42;;;;;;;5.38;3.88;;;;;;;;;;4924882;28;100136;-74
2023/08/02 01:59:12;;;;;;;6.57;3.90;;;;;;;;;;4920214;28;102106;-74
2023/08/02 02:01:39;;;;;;;10.05;4.32;;;;;;;;;;4934768;28;101260;-74
2023/08/02 02:04:05;;;;;;;10.40;4.43;;;;;;;;;;4929507;28;101821;-74
2023/08/02 02:06:32;;;;;;;11.55;4.47;;;;;;;;;;4922940;28;100004;-74
2023/08/02 02:08:58;;;;;;;16.10;4.53;;;;;;;;;;4922464;28;98536;-74
2023/08/02 02:11:25;;;;;;;7.32;4.13;;;;;;;;;;4918750;28;99869;-74
2023/08/02 02:13:51;;;;;;;18.02;4.45;;;;;;;;;;4918762;28;100373;-75
2023/08/02 02:16:17;;;;;;;17.83;5.20;;;;;;;;;;4920542;28;100893;-75
2023/08/02 02:18:44;;;;;;;13.63;4.00;;;;;;;;;;4919261;28;102076;-74
2023/08/02 02:21:10;;;;;;;9.02;4.00;;;;;;;;;;4922071;28;100078;-74
2023/08/02 02:23:37;;;;;;;13.20;6.05;;;;;;;;;;4920245;28;100032;-75
2023/08/02 02:26:03;;;;;;;10.25;4.40;;;;;;;;;;4922949;28;100388;-74
2023/08/02 02:28:30;;;;;;;7.88;4.00;;;;;;;;;;4914017;28;99879;-74
2023/08/02 02:30:56;;;;;;;10.40;5.20;;;;;;;;;;4917072;28;99883;-75
2023/08/02 02:33:23;;;;;;;11.20;4.05;;;;;;;;;;4919476;28;100028;-75
2023/08/02 02:35:49;;;;;;;8.30;4.10;;;;;;;;;;4921537;28;101724;-75
2023/08/02 02:38:16;;;;;;;5.20;3.75;;;;;;;;;;4920768;28;100646;-74
2023/08/02 02:40:42;;;;;;;10.27;4.10;;;;;;;;;;4917114;28;100298;-74
2023/08/02 02:43:09;;;;;;;9.75;4.88;;;;;;;;;;4920164;28;100313;-74
2023/08/02 02:45:35;;;;;;;17.55;4.63;;;;;;;;;;4918680;28;100123;-75
2023/08/02 02:48:02;;;;;;;7.47;3.83;;;;;;;;;;4922137;28;99997;-74
2023/08/02 02:50:29;;;;;;;8.02;3.72;;;;;;;;;;4919293;28;100051;-75
2023/08/02 02:52:55;;;;;;;15.82;4.15;;;;;;;;;;4921003;28;99564;-75
2023/08/02 02:55:22;;;;;;;11.68;4.03;;;;;;;;;;4916655;28;100378;-74
2023/08/02 02:57:48;;;;;;;12.15;4.57;;;;;;;;;;4918137;28;98877;-75
2023/08/02 03:00:14;;;;;;;13.07;3.95;;;;;;;;;;4920062;28;100470;-75
2023/08/02 03:02:41;;;;;;;9.23;3.67;;;;;;;;;;4917240;28;100264;-74
2023/08/02 03:05:08;;;;;;;9.27;4.20;;;;;;;;;;4919404;28;99857;-73
2023/08/02 03:07:34;;;;;;;8.52;3.95;;;;;;;;;;4918508;28;101617;-74
2023/08/02 03:10:01;;;;;;;7.32;3.60;;;;;;;;;;4921932;28;100223;-74
2023/08/02 03:12:27;;;;;;;14.85;5.28;;;;;;;;;;4918863;28;100392;-75
2023/08/02 03:14:54;;;;;;;8.80;3.67;;;;;;;;;;4917543;28;101748;-74
2023/08/02 03:17:20;;;;;;;12.13;4.20;;;;;;;;;;4919039;28;99178;-74
2023/08/02 03:19:46;;;;;;;9.68;3.53;;;;;;;;;;4919109;28;100202;-74
2023/08/02 03:22:14;;;;;;;9.85;3.58;;;;;;;;;;4926477;28;98236;-74
2023/08/02 03:24:41;;;;;;;9.07;3.45;;;;;;;;;;4927835;28;99108;-74
2023/08/02 03:27:07;;;;;;;4.43;3.13;;;;;;;;;;4930573;28;99025;-73
2023/08/02 03:29:34;;;;;;;3.28;2.97;;;;;;;;;;4928157;28;100909;-73
2023/08/02 03:32:00;;;;;;;9.75;3.55;;;;;;;;;;4934128;28;98468;-73
2023/08/02 03:34:26;;;;;;;7.15;3.83;;;;;;;;;;4930697;28;100188;-74
2023/08/02 03:36:53;;;;;;;11.55;4.07;;;;;;;;;;4930549;28;100145;-75
2023/08/02 03:39:19;;;;;;;7.50;3.78;;;;;;;;;;4930333;28;99894;-73
2023/08/02 03:41:46;;;;;;;7.07;3.05;;;;;;;;;;4930982;28;101032;-74
2023/08/02 03:44:13;;;;;;;9.68;3.70;;;;;;;;;;4930020;28;99880;-73
2023/08/02 03:46:39;;;;;;;8.90;3.95;;;;;;;;;;4931403;28;100257;-74
2023/08/02 03:49:06;;;;;;;12.70;4.93;;;;;;;;;;4930172;28;100148;-74
2023/08/02 03:51:33;;;;;;;5.88;3.10;;;;;;;;;;4932798;28;100181;-75
2023/08/02 03:54:00;;;;;;;5.85;3.10;;;;;;;;;;4930122;28;101172;-75
2023/08/02 03:56:26;;;;;;;13.73;3.30;;;;;;;;;;4925234;28;99367;-75
2023/08/02 03:58:53;;;;;;;8.75;3.40;;;;;;;;;;4922168;28;99951;-73
2023/08/02 04:01:19;;;;;;;8.23;3.80;;;;;;;;;;4918479;28;100298;-73
2023/08/02 04:03:46;;;;;;;5.53;3.40;;;;;;;;;;4919298;28;99982;-74
2023/08/02 04:06:12;;;;;;;12.88;4.20;;;;;;;;;;4921820;28;99733;-74
2023/08/02 04:08:39;;;;;;;6.72;3.63;;;;;;;;;;4920947;28;99363;-73
2023/08/02 04:11:05;;;;;;;16.77;4.03;;;;;;;;;;4919817;28;102264;-74
2023/08/02 04:13:32;;;;;;;5.60;3.60;;;;;;;;;;4925720;28;99932;-75
2023/08/02 04:15:59;;;;;;;8.40;4.13;;;;;;;;;;4921411;28;100126;-73
2023/08/02 04:18:25;;;;;;;4.43;3.50;;;;;;;;;;4920192;28;100359;-75
2023/08/02 04:20:52;;;;;;;12.10;4.10;;;;;;;;;;4924973;28;100518;-75
2023/08/02 04:23:19;;;;;;;9.27;3.28;;;;;;;;;;4929859;28;98850;-75
2023/08/02 04:25:46;;;;;;;4.50;3.28;;;;;;;;;;4925095;28;99860;-75
2023/08/02 04:28:12;;;;;;;8.00;3.33;;;;;;;;;;4922615;28;99674;-75
2023/08/02 04:30:39;;;;;;;7.72;3.83;;;;;;;;;;4917985;28;99111;-75
2023/08/02 04:33:05;;;;;;;7.32;3.88;;;;;;;;;;4918075;28;99857;-73
2023/08/02 04:35:32;;;;;;;10.25;4.07;;;;;;;;;;4924881;28;99881;-75
2023/08/02 04:37:58;;;;;;;11.02;3.90;;;;;;;;;;4919941;28;98565;-75
2023/08/02 04:40:24;;;;;;;15.23;4.15;;;;;;;;;;4921650;28;100188;-74
2023/08/02 04:42:51;;;;;;;10.60;3.38;;;;;;;;;;4921166;28;99486;-73
2023/08/02 04:45:17;;;;;;;10.13;3.42;;;;;;;;;;4919321;28;99773;-74
2023/08/02 04:47:44;;;;;;;3.78;3.17;;;;;;;;;;4922405;28;99349;-73
2023/08/02 04:50:10;;;;;;;10.05;4.20;;;;;;;;;;4926898;28;99351;-74
2023/08/02 04:52:36;;;;;;;8.57;4.07;;;;;;;;;;4929885;28;100438;-74
2023/08/02 04:55:05;;;;;;;7.15;3.25;;;;;;;;;;4928945;28;100451;-74
2023/08/02 04:57:31;;;;;;;8.15;3.80;;;;;;;;;;4932733;28;98890;-74
2023/08/02 04:59:58;;;;;;;5.10;3.15;;;;;;;;;;4929868;28;98692;-75
2023/08/02 05:02:33;;;;;;;14.45;3.92;;;;;;;;;;4928782;28;99891;-75
2023/08/02 05:05:01;;;;;;;6.75;3.67;;;;;;;;;;4929720;28;99954;-76
2023/08/02 05:07:35;;;;;;;5.25;2.63;;;;;;;;;;4927839;28;100000;-75
2023/08/02 05:10:05;;;;;;;9.93;3.80;;;;;;;;;;4929721;28;100355;-73
2023/08/02 05:12:37;;;;;;;14.07;3.38;;;;;;;;;;4929316;28;100113;-74
2023/08/02 05:15:04;;;;;;;5.82;3.10;;;;;;;;;;4928738;28;100389;-76
2023/08/02 05:17:30;;;;;;;5.43;3.38;;;;;;;;;;4928975;28;99045;-74
2023/08/02 05:19:57;;;;;;;12.88;3.40;;;;;;;;;;4930195;28;100186;-75
2023/08/02 05:22:23;;;;;;;10.13;3.50;;;;;;;;;;4927064;28;100926;-75
2023/08/02 05:24:50;;;;;;;7.72;3.17;;;;;;;;;;4931478;28;99134;-75
2023/08/02 05:27:17;;;;;;;4.20;2.75;;;;;;;;;;4922226;28;100242;-74
2023/08/02 05:29:44;;;;;;;3.10;2.80;;;;;;;;;;4918176;28;100289;-75
2023/08/02 05:32:10;;;;;;;5.03;2.67;;;;;;;;;;4915632;28;100555;-74
2023/08/02 05:34:37;;;;;;;8.55;2.80;;;;;;;;;;4923442;28;100622;-73
2023/08/02 05:37:03;;;;;;;10.57;2.85;;;;;;;;;;4921854;28;99881;-73
2023/08/02 05:39:30;;;;;;;4.38;3.03;;;;;;;;;;4923837;28;99930;-74
2023/08/02 05:41:56;;;;;;;6.75;3.05;;;;;;;;;;4916409;28;98976;-75
2023/08/02 05:44:23;;;;;;;8.10;3.50;;;;;;;;;;4922286;28;100661;-73
2023/08/02 05:46:49;;;;;;;3.75;3.03;;;;;;;;;;4921605;28;100417;-74
2023/08/02 05:49:16;;;;;;;3.90;2.65;;;;;;;;;;4921695;28;99103;-73
2023/08/02 05:51:42;;;;;;;9.25;3.53;;;;;;;;;;4925804;28;99940;-73
2023/08/02 05:54:09;;;;;;;13.05;3.78;;;;;;;;;;4928367;28;100270;-75
2023/08/02 05:56:36;;;;;;;7.40;3.22;;;;;;;;;;4924132;28;100922;-73
2023/08/02 05:59:02;;;;;;;6.80;3.20;;;;;;;;;;4918477;28;100300;-75
2023/08/02 06:01:29;;;;;;;6.72;3.55;;;;;;;;;;4924026;28;100452;-74
2023/08/02 06:03:55;;;;;;;6.57;3.03;;;;;;;;;;4920597;28;100529;-75
2023/08/02 06:06:22;;;;;;;8.00;3.67;;;;;;;;;;4927017;28;101961;-74
2023/08/02 06:08:48;;;;;;;4.95;4.05;;;;;;;;;;4928327;28;98557;-74
2023/08/02 06:11:15;;;;;;;6.28;3.58;;;;;;;;;;4918819;28;99854;-74
2023/08/02 06:13:41;;;;;;;5.68;3.60;;;;;;;;;;4917384;28;99088;-73
2023/08/02 06:16:08;;;;;;;10.70;5.88;;;;;;;;;;4918552;28;99821;-73
2023/08/02 06:18:34;;;;;;;7.13;4.35;;;;;;;;;;4917265;28;100872;-73
2023/08/02 06:21:03;;;;;;;9.32;3.97;;;;;;;;;;4921367;28;100028;-74
2023/08/02 06:23:29;;;;;;;12.68;5.10;;;;;;;;;;4922225;28;100317;-73
2023/08/02 06:25:55;;;;;;;5.32;4.05;;;;;;;;;;4915330;28;100403;-73
2023/08/02 06:28:22;;;;;;;13.07;5.18;;;;;;;;;;4920138;28;99143;-73
2023/08/02 06:30:49;;;;;;;10.30;5.28;;;;;;;;;;4921737;28;101878;-73
2023/08/02 06:33:15;;;;;;;6.95;4.25;;;;;;;;;;4920656;28;100017;-74
2023/08/02 06:35:42;;;;;;;5.28;4.05;;;;;;;;;;4916325;28;100313;-74
2023/08/02 06:38:08;;;;;;;8.55;5.35;;;;;;;;;;4925281;28;99151;-75
2023/08/02 06:40:35;;;;;;;7.15;4.88;;;;;;;;;;4926893;28;100740;-75
2023/08/02 06:43:01;;;;;;;10.30;5.05;;;;;;;;;;4925232;28;100538;-75
2023/08/02 06:45:28;;;;;;;5.18;4.68;;;;;;;;;;4922059;28;100862;-75
2023/08/02 06:47:54;;;;;;;13.73;4.95;;;;;;;;;;4919148;28;100416;-74
2023/08/02 06:50:21;;;;;;;9.10;4.57;;;;;;;;;;4924797;28;99960;-75
2023/08/02 06:52:48;;;;;;;5.07;3.78;;;;;;;;;;4927049;28;100691;-75
2023/08/02 06:55:16;;;;;;;7.95;4.47;;;;;;;;;;4927301;28;101304;-75
2023/08/02 06:57:43;;;;;;;6.85;4.50;;;;;;;;;;4927954;28;100077;-76
2023/08/02 07:00:10;;;;;;;5.60;4.85;;;;;;;;;;4927030;28;99362;-75
2023/08/02 07:02:36;;;;;;;4.07;3.78;;;;;;;;;;4931825;28;99179;-76
2023/08/02 07:05:03;;;;;;;6.20;4.18;;;;;;;;;;4922851;28;99932;-76
2023/08/02 07:07:29;;;;;;;8.70;3.90;;;;;;;;;;4933420;28;100436;-76
2023/08/02 07:09:56;;;;;;;4.40;3.83;;;;;;;;;;4927195;28;100719;-75
2023/08/02 07:12:23;;;;;;;5.07;3.85;;;;;;;;;;4922032;28;99511;-74
2023/08/02 07:14:49;;;;;;;6.88;4.07;;;;;;;;;;4920143;28;101330;-74
2023/08/02 07:17:16;;;;;;;4.80;4.38;;;;;;;;;;4923880;28;100593;-74
2023/08/02 07:19:42;;;;;;;6.25;4.15;;;;;;;;;;4919442;28;99835;-74
2023/08/02 07:22:10;;;;;;;6.50;4.13;;;;;;;;;;4921832;28;100042;-74
2023/08/02 07:24:36;;;;;;;7.15;4.10;;;;;;;;;;4921540;28;100241;-75
2023/08/02 07:27:03;;;;;;;4.32;4.03;;;;;;;;;;4922148;28;99904;-74
2023/08/02 07:29:30;;;;;;;5.95;4.38;;;;;;;;;;4923773;28;101080;-75
2023/08/02 07:31:56;;;;;;;5.45;4.47;;;;;;;;;;4919215;28;99332;-75
2023/08/02 07:34:23;;;;;;;8.82;3.53;;;;;;;;;;4929276;28;100133;-74
2023/08/02 07:36:49;;;;;;;4.88;3.67;;;;;;;;;;4928403;28;99671;-75
2023/08/02 07:39:16;;;;;;;3.97;3.67;;;;;;;;;;4929021;28;100393;-74
2023/08/02 07:41:42;;;;;;;3.42;2.92;;;;;;;;;;4928452;28;98984;-74
2023/08/02 07:44:09;;;;;;;3.45;3.15;;;;;;;;;;4923403;28;100540;-73
2023/08/02 07:46:36;;;;;;;4.10;3.38;;;;;;;;;;4923049;28;101600;-74
2023/08/02 07:49:03;;;;;;;3.70;2.95;;;;;;;;;;4928017;28;100150;-74
2023/08/02 07:51:30;;;;;;;3.95;3.20;;;;;;;;;;4925975;28;99621;-75
2023/08/02 07:53:57;;;;;;;8.13;3.40;;;;;;;;;;4925957;28;99913;-74
2023/08/02 07:56:23;;;;;;;4.60;3.08;;;;;;;;;;4919950;28;100036;-75
2023/08/02 07:58:50;;;;;;;3.40;2.35;;;;;;;;;;4925248;28;101069;-76
2023/08/02 08:01:16;;;;;;;3.70;2.35;;;;;;;;;;4930182;28;100015;-76
2023/08/02 08:03:43;;;;;;;6.03;2.58;;;;;;;;;;4925463;28;99455;-75
2023/08/02 08:06:11;;;;;;;2.38;2.20;;;;;;;;;;4923734;28;100123;-75
2023/08/02 08:08:38;;;;;;;2.58;2.45;;;;;;;;;;4926424;28;99667;-75
2023/08/02 08:11:04;;;;;;;2.33;2.20;;;;;;;;;;4928722;28;100081;-77
2023/08/02 08:13:31;;;;;;;2.78;2.45;;;;;;;;;;4928308;28;99945;-76
2023/08/02 08:15:59;;;;;;;2.03;1.92;;;;;;;;;;4927066;28;99544;-74
2023/08/02 08:18:25;;;;;;;2.65;2.17;;;;;;;;;;4929148;28;99227;-75
2023/08/02 08:20:52;;;;;;;7.00;1.80;;;;;;;;;;4920269;28;100132;-75
2023/08/02 08:23:19;;;;;;;2.33;2.20;;;;;;;;;;4917839;28;101082;-76
2023/08/02 08:25:45;;;;;;;1.92;1.80;;;;;;;;;;4921605;28;100132;-77
2023/08/02 08:28:12;;;;;;;1.80;1.70;;;;;;;;;;4918503;28;100254;-77
2023/08/02 08:30:38;;;;;;;2.67;1.52;;;;;;;;;;4922541;28;101553;-77
2023/08/02 08:33:05;;;;;;;1.63;1.50;;;;;;;;;;4925801;28;100434;-77
2023/08/02 08:35:34;;;;;;;1.50;1.40;;;;;;;;;;4916753;28;99825;-77
2023/08/02 08:38:01;;;;;;;1.30;1.30;;;;;;;;;;4925372;28;101026;-76
2023/08/02 08:40:28;;;;;;;1.30;1.30;;;;;;;;;;4927839;28;99727;-77
2023/08/02 08:42:56;;;;;;;1.38;1.27;;;;;;;;;;4927891;28;99157;-76
2023/08/02 08:45:23;;;;;;;1.25;1.25;;;;;;;;;;4927323;28;100097;-75
2023/08/02 08:47:50;;;;;;;1.48;1.48;;;;;;;;;;4927231;28;99951;-76
2023/08/02 08:50:18;;;;;;;1.60;1.13;;;;;;;;;;4928538;28;99716;-75
2023/08/02 08:52:46;;;;;;;1.80;1.48;;;;;;;;;;4928159;28;99493;-76
2023/08/02 08:55:13;;;;;;;3.30;1.30;;;;;;;;;;4931165;28;100144;-77
2023/08/02 08:57:40;;;;;;;1.00;1.00;;;;;;;;;;4929583;28;99753;-78
2023/08/02 09:00:08;;;;;;;2.10;1.20;;;;;;;;;;4928377;28;99082;-78
2023/08/02 09:02:36;;;;;;;1.25;0.90;;;;;;;;;;4929458;28;100134;-76
2023/08/02 09:05:03;;;;;;;1.00;1.00;;;;;;;;;;4930263;28;99531;-77
2023/08/02 09:07:30;;;;;;;2.08;1.23;;;;;;;;;;4928453;28;100732;-76
2023/08/02 09:09:57;;;;;;;1.10;1.10;;;;;;;;;;4929459;28;100109;-78
2023/08/02 09:12:27;;;;;;;1.10;1.10;;;;;;;;;;4928576;28;100461;-78
2023/08/02 09:14:58;;;;;;;1.30;1.00;;;;;;;;;;4926748;28;99784;-78
2023/08/02 09:17:24;;;;;;;1.20;1.20;;;;;;;;;;4932112;28;100253;-82
2023/08/02 09:20:05;;;;;;;0.82;0.82;;;;;;;;;;4928907;28;100860;-78
2023/08/02 09:22:32;;;;;;;1.00;1.00;;;;;;;;;;4927816;28;100186;-77
2023/08/02 09:24:59;;;;;;;1.10;1.10;;;;;;;;;;4928606;28;100771;-77
2023/08/02 09:27:29;;;;;;;1.33;1.30;;;;;;;;;;4927778;28;100779;-77
2023/08/02 09:29:55;;;;;;;1.30;1.13;;;;;;;;;;4929629;28;99005;-77
2023/08/02 09:32:22;;;;;;;1.83;1.20;;;;;;;;;;4927665;28;99755;-78
2023/08/02 09:34:49;;;;;;;1.17;1.17;;;;;;;;;;4928212;28;99977;-78
2023/08/02 09:37:26;;;;;;;1.40;1.33;;;;;;;;;;4928942;28;99909;-79
2023/08/02 09:39:53;;;;;;;0.90;0.90;;;;;;;;;;4932420;28;100129;-79
2023/08/02 09:42:26;;;;;;;1.05;1.05;;;;;;;;;;4927624;28;99825;-77
2023/08/02 09:44:55;;;;;;;1.20;1.20;;;;;;;;;;4927663;28;100247;-75
2023/08/02 09:47:22;;;;;;;3.80;1.15;;;;;;;;;;4928022;28;99226;-77
2023/08/02 09:50:01;;;;;;;1.15;1.15;;;;;;;;;;4927510;28;98959;-78
2023/08/02 09:52:27;;;;;;;1.10;1.10;;;;;;;;;;4925606;28;100201;-77
2023/08/02 09:54:54;;;;;;;0.98;0.98;;;;;;;;;;4921765;28;99999;-77
2023/08/02 09:57:24;;;;;;;1.40;1.30;;;;;;;;;;4908170;28;98400;-77
2023/08/02 09:59:51;;;;;;;2.08;1.35;;;;;;;;;;4924447;28;99396;-77
2023/08/02 10:02:20;;;;;;;1.20;1.20;;;;;;;;;;4927825;28;100199;-77
2023/08/02 10:04:47;;;;;;;1.38;1.27;;;;;;;;;;4927783;28;99790;-77
2023/08/02 10:07:14;;;;;;;1.10;1.10;;;;;;;;;;4928147;28;100319;-80
2023/08/02 10:09:41;;;;;;;1.48;1.48;;;;;;;;;;4927705;28;99451;-77
2023/08/02 10:12:16;;;;;;;1.48;1.30;;;;;;;;;;4922374;28;100394;-77
2023/08/02 10:14:43;;;;;;;1.10;1.05;;;;;;;;;;4916296;28;100213;-77
2023/08/02 10:17:10;;;;;;;1.00;1.00;;;;;;;;;;4921718;28;99912;-80
2023/08/02 10:19:37;;;;;;;1.25;1.00;;;;;;;;;;4923973;28;99750;-76
2023/08/02 10:22:04;;;;;;;2.25;1.20;;;;;;;;;;4929082;28;99152;-78
2023/08/02 10:24:30;;;;;;;1.88;1.30;;;;;;;;;;4920030;28;100386;-77
2023/08/02 10:26:58;;;;;;;1.40;1.30;;;;;;;;;;4915034;28;99957;-77
2023/08/02 10:29:25;;;;;;;3.35;1.65;;;;;;;;;;4921885;28;100700;-78
2023/08/02 10:31:52;;;;;;;0.90;0.90;;;;;;;;;;4917525;28;100114;-78
2023/08/02 10:34:34;;;;;;;2.92;1.00;;;;;;;;;;4917911;28;100004;-77
2023/08/02 10:37:00;;;;;;;1.25;1.15;;;;;;;;;;4918324;28;100398;-77
2023/08/02 10:39:45;;;;;;;0.90;0.90;;;;;;;;;;4917497;28;99406;-77
2023/08/02 10:42:12;;;;;;;2.17;1.08;;;;;;;;;;4920320;28;100850;-77
2023/08/02 10:44:53;;;;;;;1.10;1.10;;;;;;;;;;4919013;28;99694;-76
2023/08/02 10:47:30;;;;;;;0.90;0.90;;;;;;;;;;4914843;28;99143;-77
2023/08/02 10:49:57;;;;;;;1.20;0.90;;;;;;;;;;4917619;28;99888;-77
2023/08/02 10:52:31;;;;;;;0.93;0.82;;;;;;;;;;4924389;28;100031;-78
2023/08/02 10:55:13;;;;;;;0.88;0.60;;;;;;;;;;4927851;28;100089;-78
2023/08/02 10:57:41;;;;;;;4.05;0.90;;;;;;;;;;4929026;28;99106;-76
2023/08/02 11:00:23;;;;;;;1.02;0.82;;;;;;;;;;4918173;28;100261;-77
2023/08/02 11:02:55;;;;;;;2.15;0.80;;;;;;;;;;4917956;28;100104;-79
2023/08/02 11:05:40;;;;;;;0.85;0.85;;;;;;;;;;4916226;28;99900;-78
2023/08/02 11:08:10;;;;;;;0.73;0.73;;;;;;;;;;4924420;28;99316;-77
2023/08/02 11:10:53;;;;;;;1.02;0.80;;;;;;;;;;4916528;28;101905;-79
2023/08/02 11:13:23;;;;;;;2.10;0.88;;;;;;;;;;4917402;28;99650;-77
2023/08/02 11:16:03;;;;;;;0.95;0.85;;;;;;;;;;4921827;28;100050;-79
2023/08/02 11:18:41;;;;;;;2.17;0.70;;;;;;;;;;4917302;28;100808;-79
2023/08/02 11:21:13;;;;;;;1.30;1.15;;;;;;;;;;4924032;28;99275;-78
2023/08/02 11:23:41;;;;;;;3.40;0.73;;;;;;;;;;4912544;28;99363;-77
2023/08/02 11:26:13;;;;;;;4.85;1.08;;;;;;;;;;4926384;28;98997;-79
2023/08/02 11:28:48;;;;;;;2.10;0.93;;;;;;;;;;4920632;28;99785;-79
2023/08/02 11:31:22;;;;;;;2.83;1.05;;;;;;;;;;4928829;28;100064;-78
2023/08/02 11:33:51;;;;;;;2.85;1.15;;;;;;;;;;4926443;28;99308;-76
2023/08/02 11:36:18;;;;;;;2.20;1.00;;;;;;;;;;4919295;28;100613;-78
2023/08/02 11:38:46;;;;;;;5.22;1.05;;;;;;;;;;4915433;28;99026;-77
2023/08/02 11:41:20;;;;;;;3.50;1.27;;;;;;;;;;4916384;28;100819;-77
2023/08/02 11:43:48;;;;;;;2.65;1.10;;;;;;;;;;4921615;28;100533;-77
2023/08/02 11:46:21;;;;;;;3.70;1.42;;;;;;;;;;4917386;28;100354;-77
2023/08/02 11:48:48;;;;;;;5.90;1.40;;;;;;;;;;4919678;28;101596;-78
2023/08/02 11:51:16;;;;;;;2.30;1.10;;;;;;;;;;4926441;28;99188;-78
2023/08/02 11:53:55;;;;;;;4.75;1.40;;;;;;;;;;4931476;28;100015;-77
2023/08/02 11:56:22;;;;;;;6.78;1.58;;;;;;;;;;4922838;28;100252;-80
2023/08/02 11:58:49;;;;;;;6.28;1.80;;;;;;;;;;4918377;28;99682;-77
2023/08/02 12:01:18;;;;;;;6.13;2.45;;;;;;;;;;4924868;28;99721;-78
2023/08/02 12:04:11;;;;;;;2.97;1.52;;;;;;;;;;4919980;28;100843;-76
2023/08/02 12:06:45;;;;;;;8.15;1.50;;;;;;;;;;4916992;28;99906;-77
2023/08/02 12:09:12;;;;;;;1.95;1.00;;;;;;;;;;4922312;28;101259;-76
2023/08/02 12:11:39;;;;;;;7.18;1.73;;;;;;;;;;4920912;28;100725;-77
2023/08/02 12:14:06;;;;;;;5.03;1.27;;;;;;;;;;4920554;28;100325;-76
2023/08/02 12:16:41;;;;;;;3.75;1.35;;;;;;;;;;4919575;28;100314;-78
2023/08/02 12:19:10;;;;;;;5.70;1.35;;;;;;;;;;4921021;28;99176;-76
2023/08/02 12:21:39;;;;;;;1.75;0.93;;;;;;;;;;4925398;28;101429;-78
2023/08/02 12:24:12;;;;;;;4.05;1.33;;;;;;;;;;4919629;28;99985;-77
2023/08/02 12:26:39;;;;;;;4.40;1.13;;;;;;;;;;4918935;28;100176;-78
2023/08/02 12:29:06;;;;;;;2.17;0.85;;;;;;;;;;4921550;28;100584;-78
2023/08/02 12:31:42;;;;;;;11.30;1.42;;;;;;;;;;4922273;28;99897;-77
2023/08/02 12:34:09;;;;;;;1.52;0.80;;;;;;;;;;4921190;28;101091;-77
2023/08/02 12:36:38;;;;;;;3.70;1.20;;;;;;;;;;4922039;28;101898;-78
2023/08/02 12:39:08;;;;;;;1.60;0.80;;;;;;;;;;4918969;28;100119;-76
2023/08/02 12:41:34;;;;;;;2.08;0.70;;;;;;;;;;4920540;28;99699;-76
2023/08/02 12:44:02;;;;;;;0.70;0.70;;;;;;;;;;4923274;28;100171;-75
2023/08/02 12:46:31;;;;;;;6.60;1.20;;;;;;;;;;4915565;28;100179;-74
2023/08/02 12:48:58;;;;;;;0.60;0.57;;;;;;;;;;4921000;28;100557;-74
2023/08/02 12:51:24;;;;;;;2.83;0.77;;;;;;;;;;4917878;28;99814;-74
2023/08/02 12:53:51;;;;;;;2.67;0.80;;;;;;;;;;4922601;28;100188;-74
2023/08/02 12:56:17;;;;;;;2.90;1.20;;;;;;;;;;4918400;28;100495;-77
2023/08/02 12:58:44;;;;;;;3.38;0.98;;;;;;;;;;4920085;28;100070;-75
2023/08/02 13:01:11;;;;;;;2.92;1.15;;;;;;;;;;4919407;28;100238;-75
2023/08/02 13:03:37;;;;;;;2.90;0.60;;;;;;;;;;4923113;28;100114;-73
2023/08/02 13:06:04;;;;;;;1.35;0.80;;;;;;;;;;4918040;28;100206;-74
2023/08/02 13:08:31;;;;;;;2.28;1.08;;;;;;;;;;4923234;28;99652;-74
2023/08/02 13:10:57;;;;;;;2.90;1.10;;;;;;;;;;4922934;28;100534;-74
2023/08/02 13:13:24;;;;;;;3.20;0.93;;;;;;;;;;4920677;28;99337;-73
2023/08/02 13:15:51;;;;;;;1.75;0.90;;;;;;;;;;4921262;28;99749;-75
2023/08/02 13:18:17;;;;;;;3.92;1.20;;;;;;;;;;4919816;28;100496;-75
2023/08/02 13:20:44;;;;;;;3.08;0.98;;;;;;;;;;4923160;28;100307;-75
2023/08/02 13:23:10;;;;;;;4.80;1.08;;;;;;;;;;4921278;28;100914;-76
2023/08/02 13:25:37;;;;;;;1.88;1.00;;;;;;;;;;4919696;28;100853;-76
2023/08/02 13:28:05;;;;;;;4.25;1.65;;;;;;;;;;4917807;28;100434;-76
2023/08/02 13:30:34;;;;;;;3.78;0.93;;;;;;;;;;4918621;28;99259;-75
2023/08/02 13:33:01;;;;;;;3.90;0.82;;;;;;;;;;4919888;28;100211;-76
2023/08/02 13:35:28;;;;;;;5.57;1.58;;;;;;;;;;4922339;28;100064;-77
2023/08/02 13:37:55;;;;;;;2.58;0.90;;;;;;;;;;4921354;28;100044;-77
2023/08/02 13:40:21;;;;;;;2.45;1.00;;;;;;;;;;4920881;28;99873;-75
2023/08/02 13:42:48;;;;;;;0.98;0.90;;;;;;;;;;4924833;28;100453;-76
2023/08/02 13:45:14;;;;;;;1.65;0.68;;;;;;;;;;4918595;28;99911;-75
2023/08/02 13:47:41;;;;;;;2.17;0.77;;;;;;;;;;4920104;28;100864;-74
2023/08/02 13:50:07;;;;;;;2.78;2.15;;;;;;;;;;4918030;28;100444;-74
2023/08/02 13:52:34;;;;;;;4.47;0.93;;;;;;;;;;4918799;28;100168;-74
2023/08/02 13:55:01;;;;;;;2.33;0.80;;;;;;;;;;4916408;28;99695;-74
2023/08/02 13:57:28;;;;;;;1.95;1.00;;;;;;;;;;4920972;28;99220;-75
2023/08/02 13:59:54;;;;;;;4.63;0.90;;;;;;;;;;4919802;28;100085;-75
2023/08/02 14:02:21;;;;;;;4.22;0.98;;;;;;;;;;4917774;28;100336;-74
2023/08/02 14:04:48;;;;;;;2.92;0.90;;;;;;;;;;4925864;28;99903;-75
2023/08/02 14:07:14;;;;;;;5.40;0.68;;;;;;;;;;4919592;28;99563;-75
2023/08/02 14:09:41;;;;;;;4.80;1.17;;;;;;;;;;4918416;28;100034;-75
2023/08/02 14:12:09;;;;;;;3.85;1.10;;;;;;;;;;4918397;28;100563;-74
2023/08/02 14:14:36;;;;;;;2.85;0.93;;;;;;;;;;4924086;28;99469;-75
2023/08/02 14:17:02;;;;;;;4.82;1.05;;;;;;;;;;4921043;28;100038;-75
2023/08/02 14:19:29;;;;;;;3.53;1.25;;;;;;;;;;4920027;28;100335;-75
2023/08/02 14:21:55;;;;;;;5.30;1.30;;;;;;;;;;4920040;28;100189;-74
2023/08/02 14:24:22;;;;;;;6.88;2.03;;;;;;;;;;4920252;28;99349;-74
2023/08/02 14:26:49;;;;;;;3.15;1.50;;;;;;;;;;4920805;28;100086;-74
2023/08/02 14:29:16;;;;;;;3.65;1.50;;;;;;;;;;4918233;28;98903;-74
2023/08/02 14:31:42;;;;;;;3.25;1.75;;;;;;;;;;4919414;28;99229;-74
2023/08/02 14:34:09;;;;;;;3.92;1.40;;;;;;;;;;4918375;28;100456;-74
2023/08/02 14:36:35;;;;;;;4.32;1.45;;;;;;;;;;4917916;28;101147;-75